Weather at Altisurface de la Pointe de l'Ouillon

Public forecast

Using degrees Celsius for public forecast. Weather courtesy of forecast.io.

Closest aviation weather report (METAR) to Altisurface de la Pointe de l'Ouillon

Closest report is Chambéry-Savoie Airport, 27.7 nm (51.3 km) NNW. Retrieved 2020/09/21 18:30 UTC (15 minutes ago):

LFLB 211830Z AUTO 18002KT CAVOK 17/16 Q1016 NOSIG

Closest aviation forecast (TAF) to Altisurface de la Pointe de l'Ouillon

Forecast is more than 6 hours old.

Closest forecast is Chambéry-Savoie Airport, 27.7 nm (51.3 km) NNW. Retrieved 2020/09/21 12:21 UTC (6 hours ago):

TAF LFLB 211100Z 2112/2212 36004KT 9999 FEW020 SCT150 TEMPO 2112/2117 FEW040CB PROB30 TEMPO 2112/2117 -TSRA SCT040CB BECMG 2118/2120 18005KT PROB30 TEMPO 2204/2209 4000 SHRA BR SCT010 SCT045TCU